sensor_id;sensor_type;location;lat;lon;timestamp;P1;durP1;ratioP1;P2;durP2;ratioP2
50012;SDS011;35901;48.694;9.476;2024-03-02T00:00:20;33.60;;;22.93;;
50012;SDS011;35901;48.694;9.476;2024-03-02T00:02:47;34.10;;;23.73;;
50012;SDS011;35901;48.694;9.476;2024-03-02T00:05:21;32.77;;;22.93;;
50012;SDS011;35901;48.694;9.476;2024-03-02T00:07:57;34.40;;;23.03;;
50012;SDS011;35901;48.694;9.476;2024-03-02T00:10:27;31.47;;;21.57;;
50012;SDS011;35901;48.694;9.476;2024-03-02T00:13:04;35.30;;;22.40;;
50012;SDS011;35901;48.694;9.476;2024-03-02T00:18:14;35.53;;;22.93;;
50012;SDS011;35901;48.694;9.476;2024-03-02T00:20:43;32.50;;;21.70;;
50012;SDS011;35901;48.694;9.476;2024-03-02T00:23:09;30.47;;;20.27;;
50012;SDS011;35901;48.694;9.476;2024-03-02T00:25:38;34.67;;;22.30;;
50012;SDS011;35901;48.694;9.476;2024-03-02T00:28:19;35.63;;;24.03;;
50012;SDS011;35901;48.694;9.476;2024-03-02T00:33:37;39.60;;;24.70;;
50012;SDS011;35901;48.694;9.476;2024-03-02T00:36:08;39.80;;;25.00;;
50012;SDS011;35901;48.694;9.476;2024-03-02T00:38:45;41.07;;;26.77;;
50012;SDS011;35901;48.694;9.476;2024-03-02T00:41:15;42.30;;;26.23;;
50012;SDS011;35901;48.694;9.476;2024-03-02T00:44:01;43.17;;;26.80;;
50012;SDS011;35901;48.694;9.476;2024-03-02T00:46:29;39.53;;;26.93;;
50012;SDS011;35901;48.694;9.476;2024-03-02T00:48:59;40.97;;;25.43;;
50012;SDS011;35901;48.694;9.476;2024-03-02T00:51:28;35.67;;;23.03;;
50012;SDS011;35901;48.694;9.476;2024-03-02T00:53:57;37.30;;;24.27;;
50012;SDS011;35901;48.694;9.476;2024-03-02T00:56:24;33.67;;;22.80;;
50012;SDS011;35901;48.694;9.476;2024-03-02T00:58:51;34.93;;;21.73;;
50012;SDS011;35901;48.694;9.476;2024-03-02T01:01:17;40.80;;;25.40;;
50012;SDS011;35901;48.694;9.476;2024-03-02T01:03:44;36.20;;;22.77;;
50012;SDS011;35901;48.694;9.476;2024-03-02T01:06:10;36.17;;;22.63;;
50012;SDS011;35901;48.694;9.476;2024-03-02T01:08:36;39.60;;;24.33;;
50012;SDS011;35901;48.694;9.476;2024-03-02T01:11:03;34.20;;;22.47;;
50012;SDS011;35901;48.694;9.476;2024-03-02T01:13:30;43.33;;;26.57;;
50012;SDS011;35901;48.694;9.476;2024-03-02T01:15:56;37.00;;;23.70;;
50012;SDS011;35901;48.694;9.476;2024-03-02T01:18:22;39.50;;;25.13;;
50012;SDS011;35901;48.694;9.476;2024-03-02T01:20:48;41.43;;;25.63;;
50012;SDS011;35901;48.694;9.476;2024-03-02T01:23:16;37.37;;;24.00;;
50012;SDS011;35901;48.694;9.476;2024-03-02T01:25:44;39.33;;;24.13;;
50012;SDS011;35901;48.694;9.476;2024-03-02T01:28:11;40.50;;;24.30;;
50012;SDS011;35901;48.694;9.476;2024-03-02T01:30:36;43.43;;;24.13;;
50012;SDS011;35901;48.694;9.476;2024-03-02T01:33:02;38.90;;;22.63;;
50012;SDS011;35901;48.694;9.476;2024-03-02T01:35:30;40.30;;;25.20;;
50012;SDS011;35901;48.694;9.476;2024-03-02T01:37:56;44.30;;;26.17;;
50012;SDS011;35901;48.694;9.476;2024-03-02T01:40:22;48.20;;;25.47;;
50012;SDS011;35901;48.694;9.476;2024-03-02T01:42:51;47.80;;;28.07;;
50012;SDS011;35901;48.694;9.476;2024-03-02T01:45:17;46.73;;;26.87;;
50012;SDS011;35901;48.694;9.476;2024-03-02T01:47:43;40.83;;;23.37;;
50012;SDS011;35901;48.694;9.476;2024-03-02T01:50:10;42.70;;;27.67;;
50012;SDS011;35901;48.694;9.476;2024-03-02T01:52:36;43.80;;;27.23;;
50012;SDS011;35901;48.694;9.476;2024-03-02T01:55:02;46.30;;;27.57;;
50012;SDS011;35901;48.694;9.476;2024-03-02T01:57:29;42.53;;;26.80;;
50012;SDS011;35901;48.694;9.476;2024-03-02T01:59:55;43.00;;;26.23;;
50012;SDS011;35901;48.694;9.476;2024-03-02T02:02:20;43.00;;;26.10;;
50012;SDS011;35901;48.694;9.476;2024-03-02T02:04:46;42.83;;;25.80;;
50012;SDS011;35901;48.694;9.476;2024-03-02T02:07:12;49.37;;;27.83;;
50012;SDS011;35901;48.694;9.476;2024-03-02T02:09:39;46.40;;;26.77;;
50012;SDS011;35901;48.694;9.476;2024-03-02T02:12:09;45.23;;;26.30;;
50012;SDS011;35901;48.694;9.476;2024-03-02T02:14:35;48.97;;;26.50;;
50012;SDS011;35901;48.694;9.476;2024-03-02T02:17:01;43.37;;;25.93;;
50012;SDS011;35901;48.694;9.476;2024-03-02T02:19:27;41.97;;;25.67;;
50012;SDS011;35901;48.694;9.476;2024-03-02T02:21:52;44.77;;;27.73;;
50012;SDS011;35901;48.694;9.476;2024-03-02T02:24:18;50.17;;;27.80;;
50012;SDS011;35901;48.694;9.476;2024-03-02T02:26:43;56.67;;;30.40;;
50012;SDS011;35901;48.694;9.476;2024-03-02T02:29:09;57.43;;;29.70;;
50012;SDS011;35901;48.694;9.476;2024-03-02T02:31:38;61.93;;;30.50;;
50012;SDS011;35901;48.694;9.476;2024-03-02T02:34:05;66.20;;;32.43;;
50012;SDS011;35901;48.694;9.476;2024-03-02T02:36:31;53.77;;;29.77;;
50012;SDS011;35901;48.694;9.476;2024-03-02T02:39:02;55.43;;;29.03;;
50012;SDS011;35901;48.694;9.476;2024-03-02T02:41:29;49.53;;;27.73;;
50012;SDS011;35901;48.694;9.476;2024-03-02T02:43:55;63.07;;;30.20;;
50012;SDS011;35901;48.694;9.476;2024-03-02T02:46:21;55.73;;;28.27;;
50012;SDS011;35901;48.694;9.476;2024-03-02T02:48:47;55.10;;;28.67;;
50012;SDS011;35901;48.694;9.476;2024-03-02T02:51:12;61.40;;;28.03;;
50012;SDS011;35901;48.694;9.476;2024-03-02T02:53:38;52.70;;;28.47;;
50012;SDS011;35901;48.694;9.476;2024-03-02T02:56:07;57.17;;;26.83;;
50012;SDS011;35901;48.694;9.476;2024-03-02T02:58:32;47.27;;;24.87;;
50012;SDS011;35901;48.694;9.476;2024-03-02T03:00:58;51.97;;;26.60;;
50012;SDS011;35901;48.694;9.476;2024-03-02T03:03:24;50.93;;;25.77;;
50012;SDS011;35901;48.694;9.476;2024-03-02T03:05:49;58.07;;;27.17;;
50012;SDS011;35901;48.694;9.476;2024-03-02T03:08:15;46.57;;;24.60;;
50012;SDS011;35901;48.694;9.476;2024-03-02T03:10:41;55.37;;;26.00;;
50012;SDS011;35901;48.694;9.476;2024-03-02T03:13:07;54.60;;;27.73;;
50012;SDS011;35901;48.694;9.476;2024-03-02T03:15:36;51.80;;;26.60;;
50012;SDS011;35901;48.694;9.476;2024-03-02T03:18:04;51.83;;;26.83;;
50012;SDS011;35901;48.694;9.476;2024-03-02T03:20:30;53.87;;;27.53;;
50012;SDS011;35901;48.694;9.476;2024-03-02T03:22:56;63.33;;;28.63;;
50012;SDS011;35901;48.694;9.476;2024-03-02T03:25:22;65.23;;;27.07;;
50012;SDS011;35901;48.694;9.476;2024-03-02T03:27:48;65.10;;;28.83;;
50012;SDS011;35901;48.694;9.476;2024-03-02T03:30:14;59.77;;;28.97;;
50012;SDS011;35901;48.694;9.476;2024-03-02T03:32:40;60.07;;;28.17;;
50012;SDS011;35901;48.694;9.476;2024-03-02T03:35:06;67.30;;;30.63;;
50012;SDS011;35901;48.694;9.476;2024-03-02T03:37:32;69.77;;;29.10;;
50012;SDS011;35901;48.694;9.476;2024-03-02T03:40:01;76.37;;;31.20;;
50012;SDS011;35901;48.694;9.476;2024-03-02T03:42:28;78.73;;;32.97;;
50012;SDS011;35901;48.694;9.476;2024-03-02T03:44:53;76.90;;;31.63;;
50012;SDS011;35901;48.694;9.476;2024-03-02T03:47:19;77.73;;;31.57;;
50012;SDS011;35901;48.694;9.476;2024-03-02T03:49:45;67.10;;;29.53;;
50012;SDS011;35901;48.694;9.476;2024-03-02T03:52:11;87.97;;;34.40;;
50012;SDS011;35901;48.694;9.476;2024-03-02T03:54:37;104.73;;;36.10;;
50012;SDS011;35901;48.694;9.476;2024-03-02T03:57:03;81.50;;;35.17;;
50012;SDS011;35901;48.694;9.476;2024-03-02T03:59:29;72.60;;;30.70;;
50012;SDS011;35901;48.694;9.476;2024-03-02T04:01:55;89.83;;;34.83;;
50012;SDS011;35901;48.694;9.476;2024-03-02T04:04:21;65.50;;;30.03;;
50012;SDS011;35901;48.694;9.476;2024-03-02T04:06:49;94.60;;;34.73;;
50012;SDS011;35901;48.694;9.476;2024-03-02T04:09:15;79.93;;;31.53;;
50012;SDS011;35901;48.694;9.476;2024-03-02T04:11:40;87.53;;;32.50;;
50012;SDS011;35901;48.694;9.476;2024-03-02T04:14:06;76.70;;;31.30;;
50012;SDS011;35901;48.694;9.476;2024-03-02T04:16:31;90.53;;;33.67;;
50012;SDS011;35901;48.694;9.476;2024-03-02T04:18:57;76.93;;;30.80;;
50012;SDS011;35901;48.694;9.476;2024-03-02T04:21:23;96.70;;;33.37;;
50012;SDS011;35901;48.694;9.476;2024-03-02T04:23:48;83.33;;;33.00;;
50012;SDS011;35901;48.694;9.476;2024-03-02T04:26:14;69.37;;;30.40;;
50012;SDS011;35901;48.694;9.476;2024-03-02T04:28:44;77.53;;;32.10;;
50012;SDS011;35901;48.694;9.476;2024-03-02T04:31:10;83.80;;;33.77;;
50012;SDS011;35901;48.694;9.476;2024-03-02T04:33:35;93.73;;;35.80;;
50012;SDS011;35901;48.694;9.476;2024-03-02T04:36:01;92.33;;;35.87;;
50012;SDS011;35901;48.694;9.476;2024-03-02T04:38:27;90.03;;;35.57;;
50012;SDS011;35901;48.694;9.476;2024-03-02T04:40:53;106.37;;;35.93;;
50012;SDS011;35901;48.694;9.476;2024-03-02T04:43:19;85.67;;;32.77;;
50012;SDS011;35901;48.694;9.476;2024-03-02T04:45:45;76.27;;;32.10;;
50012;SDS011;35901;48.694;9.476;2024-03-02T04:48:10;73.93;;;30.80;;
50012;SDS011;35901;48.694;9.476;2024-03-02T04:50:36;86.33;;;34.47;;
50012;SDS011;35901;48.694;9.476;2024-03-02T04:53:02;72.80;;;30.07;;
50012;SDS011;35901;48.694;9.476;2024-03-02T04:55:27;85.33;;;32.60;;
50012;SDS011;35901;48.694;9.476;2024-03-02T04:57:53;84.93;;;32.37;;
50012;SDS011;35901;48.694;9.476;2024-03-02T05:00:20;93.23;;;32.67;;
50012;SDS011;35901;48.694;9.476;2024-03-02T05:02:46;91.17;;;31.60;;
50012;SDS011;35901;48.694;9.476;2024-03-02T05:05:11;79.20;;;30.30;;
50012;SDS011;35901;48.694;9.476;2024-03-02T05:07:37;81.73;;;31.50;;
50012;SDS011;35901;48.694;9.476;2024-03-02T05:10:03;77.60;;;29.83;;
50012;SDS011;35901;48.694;9.476;2024-03-02T05:12:29;81.17;;;30.40;;
50012;SDS011;35901;48.694;9.476;2024-03-02T05:14:55;92.73;;;31.13;;
50012;SDS011;35901;48.694;9.476;2024-03-02T05:17:21;94.17;;;31.23;;
50012;SDS011;35901;48.694;9.476;2024-03-02T05:19:47;77.40;;;28.20;;
50012;SDS011;35901;48.694;9.476;2024-03-02T05:22:13;73.67;;;29.33;;
50012;SDS011;35901;48.694;9.476;2024-03-02T05:24:38;65.17;;;27.93;;
50012;SDS011;35901;48.694;9.476;2024-03-02T05:27:04;72.90;;;31.57;;
50012;SDS011;35901;48.694;9.476;2024-03-02T05:29:31;74.70;;;31.83;;
50012;SDS011;35901;48.694;9.476;2024-03-02T05:31:57;90.70;;;35.17;;
50012;SDS011;35901;48.694;9.476;2024-03-02T05:34:22;63.00;;;28.43;;
50012;SDS011;35901;48.694;9.476;2024-03-02T05:36:48;117.30;;;36.93;;
50012;SDS011;35901;48.694;9.476;2024-03-02T05:39:13;91.37;;;34.17;;
50012;SDS011;35901;48.694;9.476;2024-03-02T05:41:39;87.30;;;32.60;;
50012;SDS011;35901;48.694;9.476;2024-03-02T05:44:04;118.93;;;38.33;;
50012;SDS011;35901;48.694;9.476;2024-03-02T05:46:30;106.87;;;38.90;;
50012;SDS011;35901;48.694;9.476;2024-03-02T05:48:56;88.27;;;34.73;;
50012;SDS011;35901;48.694;9.476;2024-03-02T05:51:23;102.17;;;35.13;;
50012;SDS011;35901;48.694;9.476;2024-03-02T05:53:48;95.33;;;34.30;;
50012;SDS011;35901;48.694;9.476;2024-03-02T05:56:14;93.80;;;35.20;;
50012;SDS011;35901;48.694;9.476;2024-03-02T05:58:40;80.83;;;32.73;;
50012;SDS011;35901;48.694;9.476;2024-03-02T06:01:32;102.57;;;36.13;;
50012;SDS011;35901;48.694;9.476;2024-03-02T06:03:58;78.70;;;32.27;;
50012;SDS011;35901;48.694;9.476;2024-03-02T06:06:24;72.57;;;32.70;;
50012;SDS011;35901;48.694;9.476;2024-03-02T06:08:50;81.70;;;34.43;;
50012;SDS011;35901;48.694;9.476;2024-03-02T06:11:16;77.97;;;34.77;;
50012;SDS011;35901;48.694;9.476;2024-03-02T06:13:41;79.67;;;33.47;;
50012;SDS011;35901;48.694;9.476;2024-03-02T06:16:07;65.03;;;28.53;;
50012;SDS011;35901;48.694;9.476;2024-03-02T06:18:33;77.50;;;31.83;;
50012;SDS011;35901;48.694;9.476;2024-03-02T06:20:59;67.53;;;27.63;;
50012;SDS011;35901;48.694;9.476;2024-03-02T06:23:26;66.77;;;27.27;;
50012;SDS011;35901;48.694;9.476;2024-03-02T06:25:52;57.13;;;24.83;;
50012;SDS011;35901;48.694;9.476;2024-03-02T06:28:17;54.43;;;25.23;;
50012;SDS011;35901;48.694;9.476;2024-03-02T06:30:43;73.27;;;28.37;;
50012;SDS011;35901;48.694;9.476;2024-03-02T06:33:10;64.33;;;28.17;;
50012;SDS011;35901;48.694;9.476;2024-03-02T06:35:36;57.03;;;26.30;;
50012;SDS011;35901;48.694;9.476;2024-03-02T06:38:02;63.93;;;27.00;;
50012;SDS011;35901;48.694;9.476;2024-03-02T06:40:27;67.10;;;27.93;;
50012;SDS011;35901;48.694;9.476;2024-03-02T06:42:53;65.37;;;26.87;;
50012;SDS011;35901;48.694;9.476;2024-03-02T06:45:19;49.80;;;24.10;;
50012;SDS011;35901;48.694;9.476;2024-03-02T06:47:44;52.63;;;26.47;;
50012;SDS011;35901;48.694;9.476;2024-03-02T06:50:10;76.80;;;30.30;;
50012;SDS011;35901;48.694;9.476;2024-03-02T06:52:36;61.97;;;28.07;;
50012;SDS011;35901;48.694;9.476;2024-03-02T06:55:02;78.33;;;30.20;;
50012;SDS011;35901;48.694;9.476;2024-03-02T06:57:29;68.07;;;29.77;;
50012;SDS011;35901;48.694;9.476;2024-03-02T06:59:55;75.37;;;31.30;;
50012;SDS011;35901;48.694;9.476;2024-03-02T07:02:23;65.73;;;28.97;;
50012;SDS011;35901;48.694;9.476;2024-03-02T07:04:52;74.33;;;29.53;;
50012;SDS011;35901;48.694;9.476;2024-03-02T07:07:18;62.00;;;28.13;;
50012;SDS011;35901;48.694;9.476;2024-03-02T07:09:43;54.07;;;24.63;;
50012;SDS011;35901;48.694;9.476;2024-03-02T07:12:09;81.03;;;30.93;;
50012;SDS011;35901;48.694;9.476;2024-03-02T07:14:35;67.97;;;28.07;;
50012;SDS011;35901;48.694;9.476;2024-03-02T07:17:33;66.97;;;29.70;;
50012;SDS011;35901;48.694;9.476;2024-03-02T07:19:59;70.07;;;31.20;;
50012;SDS011;35901;48.694;9.476;2024-03-02T07:22:24;58.17;;;28.07;;
50012;SDS011;35901;48.694;9.476;2024-03-02T07:24:50;63.00;;;28.70;;
50012;SDS011;35901;48.694;9.476;2024-03-02T07:27:16;68.43;;;29.37;;
50012;SDS011;35901;48.694;9.476;2024-03-02T07:29:42;52.63;;;26.30;;
50012;SDS011;35901;48.694;9.476;2024-03-02T07:32:09;50.20;;;26.33;;
50012;SDS011;35901;48.694;9.476;2024-03-02T07:34:35;44.50;;;23.37;;
50012;SDS011;35901;48.694;9.476;2024-03-02T07:37:01;53.87;;;26.67;;
50012;SDS011;35901;48.694;9.476;2024-03-02T07:39:27;53.97;;;26.17;;
50012;SDS011;35901;48.694;9.476;2024-03-02T07:41:53;62.17;;;29.00;;
50012;SDS011;35901;48.694;9.476;2024-03-02T07:44:18;62.20;;;27.93;;
50012;SDS011;35901;48.694;9.476;2024-03-02T07:46:45;57.47;;;27.23;;
50012;SDS011;35901;48.694;9.476;2024-03-02T07:49:11;51.27;;;27.43;;
50012;SDS011;35901;48.694;9.476;2024-03-02T07:51:40;45.20;;;25.63;;
50012;SDS011;35901;48.694;9.476;2024-03-02T07:54:06;38.13;;;24.40;;
50012;SDS011;35901;48.694;9.476;2024-03-02T07:56:32;35.03;;;23.27;;
50012;SDS011;35901;48.694;9.476;2024-03-02T07:58:57;32.17;;;21.67;;
50012;SDS011;35901;48.694;9.476;2024-03-02T08:01:51;28.73;;;21.07;;
50012;SDS011;35901;48.694;9.476;2024-03-02T08:04:42;29.50;;;20.70;;
50012;SDS011;35901;48.694;9.476;2024-03-02T08:17:39;24.57;;;18.07;;
50012;SDS011;35901;48.694;9.476;2024-03-02T08:20:13;21.87;;;17.73;;
50012;SDS011;35901;48.694;9.476;2024-03-02T08:22:39;25.83;;;20.33;;
50012;SDS011;35901;48.694;9.476;2024-03-02T08:25:05;27.57;;;20.63;;
50012;SDS011;35901;48.694;9.476;2024-03-02T08:27:32;24.87;;;18.60;;
50012;SDS011;35901;48.694;9.476;2024-03-02T08:29:58;21.77;;;17.87;;
50012;SDS011;35901;48.694;9.476;2024-03-02T08:32:23;21.93;;;17.93;;
50012;SDS011;35901;48.694;9.476;2024-03-02T08:34:49;20.73;;;17.37;;
50012;SDS011;35901;48.694;9.476;2024-03-02T08:37:15;19.23;;;16.33;;
50012;SDS011;35901;48.694;9.476;2024-03-02T08:39:41;16.77;;;14.93;;
50012;SDS011;35901;48.694;9.476;2024-03-02T08:42:06;14.70;;;13.17;;
50012;SDS011;35901;48.694;9.476;2024-03-02T08:44:32;18.10;;;15.57;;
50012;SDS011;35901;48.694;9.476;2024-03-02T08:46:58;17.00;;;15.20;;
50012;SDS011;35901;48.694;9.476;2024-03-02T08:49:24;18.90;;;15.13;;
50012;SDS011;35901;48.694;9.476;2024-03-02T08:51:50;16.27;;;13.93;;
50012;SDS011;35901;48.694;9.476;2024-03-02T08:54:22;14.43;;;12.93;;
50012;SDS011;35901;48.694;9.476;2024-03-02T08:56:48;12.20;;;10.57;;
50012;SDS011;35901;48.694;9.476;2024-03-02T08:59:17;11.10;;;10.00;;
50012;SDS011;35901;48.694;9.476;2024-03-02T09:01:43;9.83;;;8.83;;
50012;SDS011;35901;48.694;9.476;2024-03-02T09:04:10;10.20;;;9.20;;
50012;SDS011;35901;48.694;9.476;2024-03-02T09:06:35;8.27;;;7.47;;
50012;SDS011;35901;48.694;9.476;2024-03-02T09:09:01;8.13;;;7.33;;
50012;SDS011;35901;48.694;9.476;2024-03-02T09:11:27;8.13;;;7.33;;
50012;SDS011;35901;48.694;9.476;2024-03-02T09:13:53;9.47;;;8.17;;
50012;SDS011;35901;48.694;9.476;2024-03-02T09:16:19;9.27;;;8.37;;
50012;SDS011;35901;48.694;9.476;2024-03-02T09:18:45;9.13;;;8.23;;
50012;SDS011;35901;48.694;9.476;2024-03-02T09:21:11;9.07;;;8.13;;
50012;SDS011;35901;48.694;9.476;2024-03-02T09:23:36;10.50;;;8.13;;
50012;SDS011;35901;48.694;9.476;2024-03-02T09:26:03;9.23;;;8.37;;
50012;SDS011;35901;48.694;9.476;2024-03-02T09:28:29;7.80;;;6.83;;
50012;SDS011;35901;48.694;9.476;2024-03-02T09:30:54;7.70;;;7.00;;
50012;SDS011;35901;48.694;9.476;2024-03-02T09:33:20;8.10;;;7.40;;
50012;SDS011;35901;48.694;9.476;2024-03-02T09:35:45;8.30;;;6.63;;
50012;SDS011;35901;48.694;9.476;2024-03-02T09:38:11;6.37;;;5.80;;
50012;SDS011;35901;48.694;9.476;2024-03-02T09:40:37;5.63;;;5.13;;
50012;SDS011;35901;48.694;9.476;2024-03-02T09:43:02;5.80;;;5.30;;
50012;SDS011;35901;48.694;9.476;2024-03-02T09:45:28;5.83;;;5.33;;
50012;SDS011;35901;48.694;9.476;2024-03-02T09:47:55;4.80;;;4.40;;
50012;SDS011;35901;48.694;9.476;2024-03-02T09:50:21;5.10;;;4.70;;
50012;SDS011;35901;48.694;9.476;2024-03-02T09:52:49;5.67;;;4.73;;
50012;SDS011;35901;48.694;9.476;2024-03-02T09:55:15;4.80;;;4.40;;
50012;SDS011;35901;48.694;9.476;2024-03-02T09:57:43;4.67;;;4.27;;
50012;SDS011;35901;48.694;9.476;2024-03-02T10:00:08;5.30;;;4.40;;
50012;SDS011;35901;48.694;9.476;2024-03-02T10:02:40;4.47;;;4.07;;
50012;SDS011;35901;48.694;9.476;2024-03-02T10:05:09;4.47;;;4.10;;
50012;SDS011;35901;48.694;9.476;2024-03-02T10:07:35;5.00;;;4.60;;
50012;SDS011;35901;48.694;9.476;2024-03-02T10:10:13;4.50;;;4.10;;
50012;SDS011;35901;48.694;9.476;2024-03-02T10:12:40;4.20;;;3.90;;
50012;SDS011;35901;48.694;9.476;2024-03-02T10:15:06;4.63;;;4.13;;
50012;SDS011;35901;48.694;9.476;2024-03-02T10:17:32;4.30;;;3.90;;
50012;SDS011;35901;48.694;9.476;2024-03-02T10:19:58;3.80;;;3.50;;
50012;SDS011;35901;48.694;9.476;2024-03-02T10:22:24;3.97;;;3.67;;
50012;SDS011;35901;48.694;9.476;2024-03-02T10:24:51;4.03;;;3.73;;
50012;SDS011;35901;48.694;9.476;2024-03-02T10:27:17;3.77;;;3.47;;
50012;SDS011;35901;48.694;9.476;2024-03-02T10:29:55;3.60;;;3.30;;
50012;SDS011;35901;48.694;9.476;2024-03-02T10:32:21;2.93;;;2.73;;
50012;SDS011;35901;48.694;9.476;2024-03-02T10:34:48;3.43;;;3.13;;
50012;SDS011;35901;48.694;9.476;2024-03-02T10:37:16;4.67;;;3.50;;
50012;SDS011;35901;48.694;9.476;2024-03-02T10:39:42;4.03;;;3.63;;
50012;SDS011;35901;48.694;9.476;2024-03-02T10:42:10;3.30;;;3.10;;
50012;SDS011;35901;48.694;9.476;2024-03-02T10:44:37;3.13;;;2.90;;
50012;SDS011;35901;48.694;9.476;2024-03-02T10:47:04;3.67;;;3.37;;
50012;SDS011;35901;48.694;9.476;2024-03-02T10:49:31;3.77;;;3.47;;
50012;SDS011;35901;48.694;9.476;2024-03-02T10:52:00;3.00;;;2.80;;
50012;SDS011;35901;48.694;9.476;2024-03-02T10:54:26;3.47;;;3.17;;
50012;SDS011;35901;48.694;9.476;2024-03-02T10:56:55;2.50;;;2.30;;
50012;SDS011;35901;48.694;9.476;2024-03-02T10:59:27;2.43;;;2.23;;
50012;SDS011;35901;48.694;9.476;2024-03-02T11:01:58;2.47;;;2.37;;
50012;SDS011;35901;48.694;9.476;2024-03-02T11:04:25;2.70;;;2.50;;
50012;SDS011;35901;48.694;9.476;2024-03-02T11:06:52;3.40;;;2.80;;
50012;SDS011;35901;48.694;9.476;2024-03-02T11:09:25;2.53;;;2.33;;
50012;SDS011;35901;48.694;9.476;2024-03-02T11:11:56;1.63;;;1.53;;
50012;SDS011;35901;48.694;9.476;2024-03-02T11:14:29;2.20;;;2.10;;
50012;SDS011;35901;48.694;9.476;2024-03-02T11:16:57;1.90;;;1.80;;
50012;SDS011;35901;48.694;9.476;2024-03-02T11:19:24;2.67;;;2.47;;
50012;SDS011;35901;48.694;9.476;2024-03-02T11:21:50;3.20;;;3.00;;
50012;SDS011;35901;48.694;9.476;2024-03-02T11:27:08;2.80;;;2.60;;
50012;SDS011;35901;48.694;9.476;2024-03-02T11:32:06;2.80;;;2.60;;
50012;SDS011;35901;48.694;9.476;2024-03-02T11:34:50;2.70;;;2.50;;
50012;SDS011;35901;48.694;9.476;2024-03-02T11:37:16;4.70;;;3.90;;
50012;SDS011;35901;48.694;9.476;2024-03-02T11:39:48;3.57;;;3.27;;
50012;SDS011;35901;48.694;9.476;2024-03-02T11:42:14;4.27;;;3.87;;
50012;SDS011;35901;48.694;9.476;2024-03-02T11:44:50;3.77;;;3.27;;
50012;SDS011;35901;48.694;9.476;2024-03-02T11:47:16;3.43;;;3.23;;
50012;SDS011;35901;48.694;9.476;2024-03-02T11:52:14;3.73;;;3.40;;
50012;SDS011;35901;48.694;9.476;2024-03-02T11:54:42;3.60;;;3.30;;
50012;SDS011;35901;48.694;9.476;2024-03-02T11:57:13;3.67;;;3.20;;
50012;SDS011;35901;48.694;9.476;2024-03-02T11:59:47;3.30;;;3.10;;
50012;SDS011;35901;48.694;9.476;2024-03-02T12:02:18;3.23;;;2.93;;
50012;SDS011;35901;48.694;9.476;2024-03-02T12:04:45;2.53;;;2.43;;
50012;SDS011;35901;48.694;9.476;2024-03-02T12:07:12;2.90;;;2.67;;
50012;SDS011;35901;48.694;9.476;2024-03-02T12:09:44;3.40;;;2.50;;
50012;SDS011;35901;48.694;9.476;2024-03-02T12:12:10;2.97;;;2.70;;
50012;SDS011;35901;48.694;9.476;2024-03-02T12:14:37;2.10;;;2.00;;
50012;SDS011;35901;48.694;9.476;2024-03-02T12:17:04;1.33;;;1.33;;
50012;SDS011;35901;48.694;9.476;2024-03-02T12:19:31;1.60;;;1.50;;
50012;SDS011;35901;48.694;9.476;2024-03-02T12:21:58;1.40;;;1.30;;
50012;SDS011;35901;48.694;9.476;2024-03-02T12:24:29;1.70;;;1.60;;
50012;SDS011;35901;48.694;9.476;2024-03-02T12:26:55;1.93;;;1.83;;
50012;SDS011;35901;48.694;9.476;2024-03-02T12:29:22;1.20;;;1.20;;
50012;SDS011;35901;48.694;9.476;2024-03-02T12:31:49;1.43;;;1.07;;
50012;SDS011;35901;48.694;9.476;2024-03-02T12:34:17;1.40;;;1.30;;
50012;SDS011;35901;48.694;9.476;2024-03-02T12:36:43;1.40;;;1.30;;
50012;SDS011;35901;48.694;9.476;2024-03-02T12:39:13;1.47;;;1.37;;
50012;SDS011;35901;48.694;9.476;2024-03-02T12:41:39;1.63;;;1.53;;
50012;SDS011;35901;48.694;9.476;2024-03-02T12:44:05;1.03;;;1.03;;
50012;SDS011;35901;48.694;9.476;2024-03-02T12:46:31;1.30;;;1.30;;
50012;SDS011;35901;48.694;9.476;2024-03-02T12:48:58;1.50;;;1.40;;
50012;SDS011;35901;48.694;9.476;2024-03-02T12:51:29;1.13;;;1.03;;
50012;SDS011;35901;48.694;9.476;2024-03-02T12:53:56;1.00;;;1.00;;
50012;SDS011;35901;48.694;9.476;2024-03-02T12:56:23;1.10;;;1.10;;
50012;SDS011;35901;48.694;9.476;2024-03-02T12:58:53;1.27;;;0.90;;
50012;SDS011;35901;48.694;9.476;2024-03-02T13:01:20;1.30;;;1.20;;
50012;SDS011;35901;48.694;9.476;2024-03-02T13:03:47;1.00;;;1.00;;
50012;SDS011;35901;48.694;9.476;2024-03-02T13:06:17;1.00;;;1.00;;
50012;SDS011;35901;48.694;9.476;2024-03-02T13:08:45;0.90;;;0.90;;
50012;SDS011;35901;48.694;9.476;2024-03-02T13:11:11;0.90;;;0.90;;
50012;SDS011;35901;48.694;9.476;2024-03-02T13:13:38;1.00;;;1.00;;
50012;SDS011;35901;48.694;9.476;2024-03-02T13:16:08;1.23;;;1.10;;
50012;SDS011;35901;48.694;9.476;2024-03-02T13:18:35;0.90;;;0.90;;
50012;SDS011;35901;48.694;9.476;2024-03-02T13:21:01;0.90;;;0.90;;
50012;SDS011;35901;48.694;9.476;2024-03-02T13:23:27;0.90;;;0.90;;
50012;SDS011;35901;48.694;9.476;2024-03-02T13:25:57;0.70;;;0.70;;
50012;SDS011;35901;48.694;9.476;2024-03-02T13:28:23;0.90;;;0.90;;
50012;SDS011;35901;48.694;9.476;2024-03-02T13:30:50;1.13;;;1.03;;
50012;SDS011;35901;48.694;9.476;2024-03-02T13:33:15;1.00;;;1.00;;
50012;SDS011;35901;48.694;9.476;2024-03-02T13:35:44;1.10;;;1.10;;
50012;SDS011;35901;48.694;9.476;2024-03-02T13:38:10;0.90;;;0.90;;
50012;SDS011;35901;48.694;9.476;2024-03-02T13:40:35;1.20;;;1.00;;
50012;SDS011;35901;48.694;9.476;2024-03-02T13:43:02;1.10;;;1.10;;
50012;SDS011;35901;48.694;9.476;2024-03-02T13:45:28;1.00;;;1.00;;
50012;SDS011;35901;48.694;9.476;2024-03-02T13:47:53;1.20;;;1.10;;
50012;SDS011;35901;48.694;9.476;2024-03-02T13:50:19;1.07;;;1.07;;
50012;SDS011;35901;48.694;9.476;2024-03-02T13:52:45;1.43;;;1.00;;
50012;SDS011;35901;48.694;9.476;2024-03-02T13:55:11;1.50;;;1.07;;
50012;SDS011;35901;48.694;9.476;2024-03-02T13:57:37;1.00;;;1.00;;
50012;SDS011;35901;48.694;9.476;2024-03-02T14:00:04;1.57;;;1.47;;
50012;SDS011;35901;48.694;9.476;2024-03-02T14:02:37;1.00;;;1.00;;
50012;SDS011;35901;48.694;9.476;2024-03-02T14:05:03;1.37;;;1.27;;
50012;SDS011;35901;48.694;9.476;2024-03-02T14:07:29;1.30;;;1.20;;
50012;SDS011;35901;48.694;9.476;2024-03-02T14:09:54;1.00;;;1.00;;
50012;SDS011;35901;48.694;9.476;2024-03-02T14:12:20;4.13;;;1.13;;
50012;SDS011;35901;48.694;9.476;2024-03-02T14:14:47;1.13;;;1.13;;
50012;SDS011;35901;48.694;9.476;2024-03-02T14:17:13;1.60;;;1.50;;
50012;SDS011;35901;48.694;9.476;2024-03-02T14:19:40;2.63;;;1.00;;
50012;SDS011;35901;48.694;9.476;2024-03-02T14:22:06;1.07;;;1.07;;
50012;SDS011;35901;48.694;9.476;2024-03-02T14:24:32;1.00;;;1.00;;
50012;SDS011;35901;48.694;9.476;2024-03-02T14:26:57;1.10;;;1.10;;
50012;SDS011;35901;48.694;9.476;2024-03-02T14:29:26;1.00;;;1.00;;
50012;SDS011;35901;48.694;9.476;2024-03-02T14:31:52;1.77;;;1.20;;
50012;SDS011;35901;48.694;9.476;2024-03-02T14:34:18;2.63;;;1.40;;
50012;SDS011;35901;48.694;9.476;2024-03-02T14:36:43;1.40;;;1.30;;
50012;SDS011;35901;48.694;9.476;2024-03-02T14:39:10;1.10;;;1.10;;
50012;SDS011;35901;48.694;9.476;2024-03-02T14:41:36;1.13;;;1.13;;
50012;SDS011;35901;48.694;9.476;2024-03-02T14:44:02;1.13;;;1.13;;
50012;SDS011;35901;48.694;9.476;2024-03-02T14:46:28;1.40;;;1.30;;
50012;SDS011;35901;48.694;9.476;2024-03-02T14:48:54;1.07;;;1.07;;
50012;SDS011;35901;48.694;9.476;2024-03-02T14:51:20;1.60;;;1.50;;
50012;SDS011;35901;48.694;9.476;2024-03-02T14:53:45;1.77;;;1.67;;